sensor_id;sensor_type;location;lat;lon;timestamp;P1;durP1;ratioP1;P2;durP2;ratioP2
57225;SDS011;43082;43.568;22.256;2023-04-25T00:02:00;22.77;;;13.50;;
57225;SDS011;43082;43.568;22.256;2023-04-25T00:04:27;19.13;;;11.38;;
57225;SDS011;43082;43.568;22.256;2023-04-25T00:06:53;16.25;;;9.75;;
57225;SDS011;43082;43.568;22.256;2023-04-25T00:09:18;20.00;;;10.98;;
57225;SDS011;43082;43.568;22.256;2023-04-25T00:11:43;16.48;;;8.85;;
57225;SDS011;43082;43.568;22.256;2023-04-25T00:14:09;11.68;;;6.57;;
57225;SDS011;43082;43.568;22.256;2023-04-25T00:16:35;11.15;;;4.53;;
57225;SDS011;43082;43.568;22.256;2023-04-25T00:19:00;7.25;;;2.40;;
57225;SDS011;43082;43.568;22.256;2023-04-25T00:21:26;9.10;;;3.75;;
57225;SDS011;43082;43.568;22.256;2023-04-25T00:23:53;15.35;;;7.85;;
57225;SDS011;43082;43.568;22.256;2023-04-25T00:26:18;14.13;;;8.13;;
57225;SDS011;43082;43.568;22.256;2023-04-25T00:28:43;15.15;;;8.13;;
57225;SDS011;43082;43.568;22.256;2023-04-25T00:31:09;17.45;;;7.35;;
57225;SDS011;43082;43.568;22.256;2023-04-25T00:33:34;12.43;;;7.82;;
57225;SDS011;43082;43.568;22.256;2023-04-25T00:36:00;12.30;;;8.10;;
57225;SDS011;43082;43.568;22.256;2023-04-25T00:38:25;12.88;;;7.35;;
57225;SDS011;43082;43.568;22.256;2023-04-25T00:40:51;10.57;;;7.32;;
57225;SDS011;43082;43.568;22.256;2023-04-25T00:43:17;12.68;;;8.05;;
57225;SDS011;43082;43.568;22.256;2023-04-25T00:45:43;11.98;;;7.90;;
57225;SDS011;43082;43.568;22.256;2023-04-25T00:48:08;12.57;;;8.05;;
57225;SDS011;43082;43.568;22.256;2023-04-25T00:50:34;11.82;;;8.00;;
57225;SDS011;43082;43.568;22.256;2023-04-25T00:52:59;13.30;;;8.13;;
57225;SDS011;43082;43.568;22.256;2023-04-25T00:55:25;15.48;;;8.02;;
57225;SDS011;43082;43.568;22.256;2023-04-25T00:57:51;12.23;;;7.55;;
57225;SDS011;43082;43.568;22.256;2023-04-25T01:00:16;12.95;;;7.47;;
57225;SDS011;43082;43.568;22.256;2023-04-25T01:02:42;13.05;;;8.48;;
57225;SDS011;43082;43.568;22.256;2023-04-25T01:05:08;14.38;;;8.07;;
57225;SDS011;43082;43.568;22.256;2023-04-25T01:07:34;14.52;;;8.68;;
57225;SDS011;43082;43.568;22.256;2023-04-25T01:09:59;20.10;;;11.57;;
57225;SDS011;43082;43.568;22.256;2023-04-25T01:12:25;19.25;;;10.90;;
57225;SDS011;43082;43.568;22.256;2023-04-25T01:14:51;16.65;;;10.23;;
57225;SDS011;43082;43.568;22.256;2023-04-25T01:17:17;17.38;;;11.05;;
57225;SDS011;43082;43.568;22.256;2023-04-25T01:19:42;14.07;;;9.23;;
57225;SDS011;43082;43.568;22.256;2023-04-25T01:22:08;13.25;;;8.68;;
57225;SDS011;43082;43.568;22.256;2023-04-25T01:24:35;13.48;;;7.53;;
57225;SDS011;43082;43.568;22.256;2023-04-25T01:27:01;13.80;;;8.27;;
57225;SDS011;43082;43.568;22.256;2023-04-25T01:29:27;14.43;;;9.05;;
57225;SDS011;43082;43.568;22.256;2023-04-25T01:31:52;17.92;;;9.65;;
57225;SDS011;43082;43.568;22.256;2023-04-25T01:34:18;16.25;;;10.60;;
57225;SDS011;43082;43.568;22.256;2023-04-25T01:36:43;18.17;;;10.23;;
57225;SDS011;43082;43.568;22.256;2023-04-25T01:39:08;15.50;;;9.27;;
57225;SDS011;43082;43.568;22.256;2023-04-25T01:41:34;18.70;;;10.38;;
57225;SDS011;43082;43.568;22.256;2023-04-25T01:44:00;21.35;;;11.45;;
57225;SDS011;43082;43.568;22.256;2023-04-25T01:46:25;19.33;;;11.20;;
57225;SDS011;43082;43.568;22.256;2023-04-25T01:48:50;16.92;;;9.60;;
57225;SDS011;43082;43.568;22.256;2023-04-25T01:51:16;15.45;;;7.90;;
57225;SDS011;43082;43.568;22.256;2023-04-25T01:53:41;14.35;;;5.88;;
57225;SDS011;43082;43.568;22.256;2023-04-25T01:56:07;11.80;;;6.45;;
57225;SDS011;43082;43.568;22.256;2023-04-25T01:58:33;12.90;;;7.05;;
57225;SDS011;43082;43.568;22.256;2023-04-25T02:00:58;12.45;;;7.00;;
57225;SDS011;43082;43.568;22.256;2023-04-25T02:03:23;12.52;;;7.10;;
57225;SDS011;43082;43.568;22.256;2023-04-25T02:05:50;17.13;;;8.57;;
57225;SDS011;43082;43.568;22.256;2023-04-25T02:08:16;12.50;;;7.05;;
57225;SDS011;43082;43.568;22.256;2023-04-25T02:10:41;16.45;;;8.02;;
57225;SDS011;43082;43.568;22.256;2023-04-25T02:13:07;13.20;;;7.65;;
57225;SDS011;43082;43.568;22.256;2023-04-25T02:15:32;10.52;;;4.95;;
57225;SDS011;43082;43.568;22.256;2023-04-25T02:17:57;6.07;;;1.88;;
57225;SDS011;43082;43.568;22.256;2023-04-25T02:20:23;5.97;;;2.38;;
57225;SDS011;43082;43.568;22.256;2023-04-25T02:22:48;8.63;;;4.75;;
57225;SDS011;43082;43.568;22.256;2023-04-25T02:25:14;17.80;;;8.75;;
57225;SDS011;43082;43.568;22.256;2023-04-25T02:27:41;16.17;;;7.47;;
57225;SDS011;43082;43.568;22.256;2023-04-25T02:30:06;15.73;;;8.77;;
57225;SDS011;43082;43.568;22.256;2023-04-25T02:32:32;13.23;;;8.02;;
57225;SDS011;43082;43.568;22.256;2023-04-25T02:34:59;11.80;;;5.38;;
57225;SDS011;43082;43.568;22.256;2023-04-25T02:37:28;12.32;;;7.38;;
57225;SDS011;43082;43.568;22.256;2023-04-25T02:39:54;10.57;;;6.07;;
57225;SDS011;43082;43.568;22.256;2023-04-25T02:42:19;4.78;;;1.98;;
57225;SDS011;43082;43.568;22.256;2023-04-25T02:44:45;6.85;;;2.72;;
57225;SDS011;43082;43.568;22.256;2023-04-25T02:47:10;12.40;;;6.18;;
57225;SDS011;43082;43.568;22.256;2023-04-25T02:49:35;10.18;;;5.00;;
57225;SDS011;43082;43.568;22.256;2023-04-25T02:52:00;8.73;;;3.30;;
57225;SDS011;43082;43.568;22.256;2023-04-25T02:54:26;7.00;;;2.78;;
57225;SDS011;43082;43.568;22.256;2023-04-25T02:56:51;6.88;;;2.85;;
57225;SDS011;43082;43.568;22.256;2023-04-25T02:59:16;8.02;;;3.45;;
57225;SDS011;43082;43.568;22.256;2023-04-25T03:01:41;7.60;;;2.92;;
57225;SDS011;43082;43.568;22.256;2023-04-25T03:04:07;7.13;;;2.92;;
57225;SDS011;43082;43.568;22.256;2023-04-25T03:06:32;9.90;;;3.05;;
57225;SDS011;43082;43.568;22.256;2023-04-25T03:08:57;6.72;;;2.70;;
57225;SDS011;43082;43.568;22.256;2023-04-25T03:11:24;7.03;;;2.08;;
57225;SDS011;43082;43.568;22.256;2023-04-25T03:13:50;5.93;;;1.70;;
57225;SDS011;43082;43.568;22.256;2023-04-25T03:16:15;6.65;;;2.20;;
57225;SDS011;43082;43.568;22.256;2023-04-25T03:18:41;6.15;;;1.77;;
57225;SDS011;43082;43.568;22.256;2023-04-25T03:21:06;5.97;;;1.80;;
57225;SDS011;43082;43.568;22.256;2023-04-25T03:23:31;4.80;;;1.80;;
57225;SDS011;43082;43.568;22.256;2023-04-25T03:25:57;4.13;;;1.27;;
57225;SDS011;43082;43.568;22.256;2023-04-25T03:28:22;3.65;;;1.23;;
57225;SDS011;43082;43.568;22.256;2023-04-25T03:30:47;4.35;;;1.55;;
57225;SDS011;43082;43.568;22.256;2023-04-25T03:33:12;5.95;;;1.60;;
57225;SDS011;43082;43.568;22.256;2023-04-25T03:35:38;6.45;;;2.00;;
57225;SDS011;43082;43.568;22.256;2023-04-25T03:38:03;6.43;;;2.85;;
57225;SDS011;43082;43.568;22.256;2023-04-25T03:40:28;8.05;;;2.83;;
57225;SDS011;43082;43.568;22.256;2023-04-25T03:42:53;6.63;;;2.78;;
57225;SDS011;43082;43.568;22.256;2023-04-25T03:45:19;7.45;;;2.42;;
57225;SDS011;43082;43.568;22.256;2023-04-25T03:47:44;7.93;;;2.40;;
57225;SDS011;43082;43.568;22.256;2023-04-25T03:50:10;7.22;;;2.53;;
57225;SDS011;43082;43.568;22.256;2023-04-25T03:52:35;7.75;;;3.10;;
57225;SDS011;43082;43.568;22.256;2023-04-25T03:55:00;7.38;;;2.75;;
57225;SDS011;43082;43.568;22.256;2023-04-25T03:57:25;6.78;;;2.40;;
57225;SDS011;43082;43.568;22.256;2023-04-25T03:59:51;6.38;;;2.40;;
57225;SDS011;43082;43.568;22.256;2023-04-25T04:02:17;5.97;;;2.28;;
57225;SDS011;43082;43.568;22.256;2023-04-25T04:04:42;8.80;;;2.63;;
57225;SDS011;43082;43.568;22.256;2023-04-25T04:07:09;9.77;;;3.13;;
57225;SDS011;43082;43.568;22.256;2023-04-25T04:09:34;9.02;;;3.20;;
57225;SDS011;43082;43.568;22.256;2023-04-25T04:11:59;12.98;;;3.38;;
57225;SDS011;43082;43.568;22.256;2023-04-25T04:14:26;7.95;;;2.83;;
57225;SDS011;43082;43.568;22.256;2023-04-25T04:16:52;7.95;;;2.90;;
57225;SDS011;43082;43.568;22.256;2023-04-25T04:19:17;12.45;;;3.20;;
57225;SDS011;43082;43.568;22.256;2023-04-25T04:21:42;9.35;;;4.25;;
57225;SDS011;43082;43.568;22.256;2023-04-25T04:24:08;8.00;;;3.78;;
57225;SDS011;43082;43.568;22.256;2023-04-25T04:26:33;7.68;;;3.08;;
57225;SDS011;43082;43.568;22.256;2023-04-25T04:28:59;5.93;;;3.00;;
57225;SDS011;43082;43.568;22.256;2023-04-25T04:31:25;9.80;;;4.72;;
57225;SDS011;43082;43.568;22.256;2023-04-25T04:33:50;11.35;;;5.95;;
57225;SDS011;43082;43.568;22.256;2023-04-25T04:36:16;14.82;;;6.93;;
57225;SDS011;43082;43.568;22.256;2023-04-25T04:38:44;15.45;;;7.50;;
57225;SDS011;43082;43.568;22.256;2023-04-25T04:41:10;21.73;;;8.63;;
57225;SDS011;43082;43.568;22.256;2023-04-25T04:43:35;20.02;;;8.63;;
57225;SDS011;43082;43.568;22.256;2023-04-25T04:46:01;21.17;;;10.23;;
57225;SDS011;43082;43.568;22.256;2023-04-25T04:48:28;20.83;;;9.10;;
57225;SDS011;43082;43.568;22.256;2023-04-25T04:50:53;20.75;;;8.00;;
57225;SDS011;43082;43.568;22.256;2023-04-25T04:53:19;18.00;;;7.40;;
57225;SDS011;43082;43.568;22.256;2023-04-25T04:55:44;10.73;;;6.40;;
57225;SDS011;43082;43.568;22.256;2023-04-25T04:58:09;12.85;;;7.00;;
57225;SDS011;43082;43.568;22.256;2023-04-25T05:00:35;15.13;;;7.70;;
57225;SDS011;43082;43.568;22.256;2023-04-25T05:03:00;15.85;;;8.18;;
57225;SDS011;43082;43.568;22.256;2023-04-25T05:05:25;17.88;;;8.70;;
57225;SDS011;43082;43.568;22.256;2023-04-25T05:07:51;23.65;;;10.57;;
57225;SDS011;43082;43.568;22.256;2023-04-25T05:10:17;25.95;;;16.88;;
57225;SDS011;43082;43.568;22.256;2023-04-25T05:12:42;31.70;;;15.70;;
57225;SDS011;43082;43.568;22.256;2023-04-25T05:15:08;27.42;;;13.93;;
57225;SDS011;43082;43.568;22.256;2023-04-25T05:17:33;134.98;;;75.38;;
57225;SDS011;43082;43.568;22.256;2023-04-25T05:19:59;48.88;;;25.92;;
57225;SDS011;43082;43.568;22.256;2023-04-25T05:22:24;39.63;;;19.20;;
57225;SDS011;43082;43.568;22.256;2023-04-25T05:24:49;31.25;;;16.35;;
57225;SDS011;43082;43.568;22.256;2023-04-25T05:27:17;23.55;;;11.93;;
57225;SDS011;43082;43.568;22.256;2023-04-25T05:29:42;19.70;;;9.40;;
57225;SDS011;43082;43.568;22.256;2023-04-25T05:32:07;20.23;;;10.77;;
57225;SDS011;43082;43.568;22.256;2023-04-25T05:34:34;25.90;;;12.55;;
57225;SDS011;43082;43.568;22.256;2023-04-25T05:37:00;27.83;;;13.10;;
57225;SDS011;43082;43.568;22.256;2023-04-25T05:39:25;24.35;;;12.25;;
57225;SDS011;43082;43.568;22.256;2023-04-25T05:41:51;25.60;;;11.35;;
57225;SDS011;43082;43.568;22.256;2023-04-25T05:44:16;24.00;;;11.85;;
57225;SDS011;43082;43.568;22.256;2023-04-25T05:46:41;22.52;;;12.43;;
57225;SDS011;43082;43.568;22.256;2023-04-25T05:49:07;41.45;;;28.17;;
57225;SDS011;43082;43.568;22.256;2023-04-25T05:51:32;45.38;;;29.40;;
57225;SDS011;43082;43.568;22.256;2023-04-25T05:53:57;19.88;;;10.55;;
57225;SDS011;43082;43.568;22.256;2023-04-25T05:56:23;16.10;;;8.43;;
57225;SDS011;43082;43.568;22.256;2023-04-25T05:58:48;16.10;;;9.38;;
57225;SDS011;43082;43.568;22.256;2023-04-25T06:01:13;18.65;;;11.18;;
57225;SDS011;43082;43.568;22.256;2023-04-25T06:03:39;20.35;;;8.82;;
57225;SDS011;43082;43.568;22.256;2023-04-25T06:06:07;21.23;;;12.73;;
57225;SDS011;43082;43.568;22.256;2023-04-25T06:08:33;17.85;;;9.60;;
57225;SDS011;43082;43.568;22.256;2023-04-25T06:10:58;16.70;;;8.20;;
57225;SDS011;43082;43.568;22.256;2023-04-25T06:13:23;50.47;;;31.85;;
57225;SDS011;43082;43.568;22.256;2023-04-25T06:15:48;28.70;;;16.95;;
57225;SDS011;43082;43.568;22.256;2023-04-25T06:18:14;16.20;;;9.65;;
57225;SDS011;43082;43.568;22.256;2023-04-25T06:20:39;22.27;;;12.25;;
57225;SDS011;43082;43.568;22.256;2023-04-25T06:23:04;24.05;;;13.82;;
57225;SDS011;43082;43.568;22.256;2023-04-25T06:25:30;19.50;;;10.13;;
57225;SDS011;43082;43.568;22.256;2023-04-25T06:27:55;25.80;;;13.75;;
57225;SDS011;43082;43.568;22.256;2023-04-25T06:30:21;26.27;;;13.35;;
57225;SDS011;43082;43.568;22.256;2023-04-25T06:32:49;24.58;;;13.20;;
57225;SDS011;43082;43.568;22.256;2023-04-25T06:35:15;44.22;;;29.73;;
57225;SDS011;43082;43.568;22.256;2023-04-25T06:37:40;65.25;;;44.97;;
57225;SDS011;43082;43.568;22.256;2023-04-25T06:40:05;30.60;;;18.20;;
57225;SDS011;43082;43.568;22.256;2023-04-25T06:42:31;22.60;;;13.27;;
57225;SDS011;43082;43.568;22.256;2023-04-25T06:44:56;9.98;;;5.18;;
57225;SDS011;43082;43.568;22.256;2023-04-25T06:47:21;14.35;;;8.98;;
57225;SDS011;43082;43.568;22.256;2023-04-25T06:49:47;7.55;;;3.60;;
57225;SDS011;43082;43.568;22.256;2023-04-25T06:52:12;7.70;;;3.70;;
57225;SDS011;43082;43.568;22.256;2023-04-25T06:54:37;10.38;;;4.53;;
57225;SDS011;43082;43.568;22.256;2023-04-25T06:57:02;10.90;;;5.03;;
57225;SDS011;43082;43.568;22.256;2023-04-25T06:59:28;11.50;;;3.97;;
57225;SDS011;43082;43.568;22.256;2023-04-25T07:01:53;15.75;;;8.82;;
57225;SDS011;43082;43.568;22.256;2023-04-25T07:04:18;14.15;;;7.32;;
57225;SDS011;43082;43.568;22.256;2023-04-25T07:06:44;13.63;;;5.20;;
57225;SDS011;43082;43.568;22.256;2023-04-25T07:09:09;12.25;;;4.60;;
57225;SDS011;43082;43.568;22.256;2023-04-25T07:11:35;10.32;;;5.35;;
57225;SDS011;43082;43.568;22.256;2023-04-25T07:14:00;13.90;;;5.35;;
57225;SDS011;43082;43.568;22.256;2023-04-25T07:16:26;8.80;;;4.03;;
57225;SDS011;43082;43.568;22.256;2023-04-25T07:18:51;8.30;;;3.55;;
57225;SDS011;43082;43.568;22.256;2023-04-25T07:21:16;17.95;;;8.85;;
57225;SDS011;43082;43.568;22.256;2023-04-25T07:23:41;14.88;;;8.48;;
57225;SDS011;43082;43.568;22.256;2023-04-25T07:26:07;24.70;;;11.35;;
57225;SDS011;43082;43.568;22.256;2023-04-25T07:28:32;25.90;;;17.92;;
57225;SDS011;43082;43.568;22.256;2023-04-25T07:30:58;14.55;;;7.18;;
57225;SDS011;43082;43.568;22.256;2023-04-25T07:33:23;24.33;;;14.45;;
57225;SDS011;43082;43.568;22.256;2023-04-25T07:35:48;20.25;;;11.85;;
57225;SDS011;43082;43.568;22.256;2023-04-25T07:38:14;19.67;;;16.15;;
57225;SDS011;43082;43.568;22.256;2023-04-25T07:40:39;14.60;;;8.65;;
57225;SDS011;43082;43.568;22.256;2023-04-25T07:43:04;12.95;;;5.82;;
57225;SDS011;43082;43.568;22.256;2023-04-25T07:45:30;14.68;;;5.95;;
57225;SDS011;43082;43.568;22.256;2023-04-25T07:47:55;11.07;;;4.35;;
57225;SDS011;43082;43.568;22.256;2023-04-25T07:50:20;10.20;;;5.25;;
57225;SDS011;43082;43.568;22.256;2023-04-25T07:52:46;10.82;;;5.38;;
57225;SDS011;43082;43.568;22.256;2023-04-25T07:55:11;8.73;;;3.47;;
57225;SDS011;43082;43.568;22.256;2023-04-25T07:57:36;12.25;;;4.75;;
57225;SDS011;43082;43.568;22.256;2023-04-25T08:00:03;10.23;;;5.35;;
57225;SDS011;43082;43.568;22.256;2023-04-25T08:02:29;8.82;;;3.70;;
57225;SDS011;43082;43.568;22.256;2023-04-25T08:04:55;27.50;;;17.02;;
57225;SDS011;43082;43.568;22.256;2023-04-25T08:07:20;10.88;;;3.83;;
57225;SDS011;43082;43.568;22.256;2023-04-25T08:09:46;10.48;;;4.10;;
57225;SDS011;43082;43.568;22.256;2023-04-25T08:12:11;9.80;;;4.05;;
57225;SDS011;43082;43.568;22.256;2023-04-25T08:14:36;9.88;;;4.07;;
57225;SDS011;43082;43.568;22.256;2023-04-25T08:17:02;9.65;;;3.53;;
57225;SDS011;43082;43.568;22.256;2023-04-25T08:19:29;11.23;;;4.10;;
57225;SDS011;43082;43.568;22.256;2023-04-25T08:21:54;12.48;;;4.05;;
57225;SDS011;43082;43.568;22.256;2023-04-25T08:24:21;12.20;;;5.50;;
57225;SDS011;43082;43.568;22.256;2023-04-25T08:26:46;11.88;;;5.10;;
57225;SDS011;43082;43.568;22.256;2023-04-25T08:29:11;16.58;;;4.38;;
57225;SDS011;43082;43.568;22.256;2023-04-25T08:31:37;9.38;;;4.60;;
57225;SDS011;43082;43.568;22.256;2023-04-25T08:34:02;11.35;;;5.15;;
57225;SDS011;43082;43.568;22.256;2023-04-25T08:36:27;13.32;;;5.80;;
57225;SDS011;43082;43.568;22.256;2023-04-25T08:38:53;9.05;;;3.47;;
57225;SDS011;43082;43.568;22.256;2023-04-25T08:41:18;10.25;;;4.70;;
57225;SDS011;43082;43.568;22.256;2023-04-25T08:43:45;7.32;;;2.95;;
57225;SDS011;43082;43.568;22.256;2023-04-25T08:46:13;9.52;;;3.78;;
57225;SDS011;43082;43.568;22.256;2023-04-25T08:48:42;7.75;;;3.08;;
57225;SDS011;43082;43.568;22.256;2023-04-25T08:51:07;10.55;;;5.07;;
57225;SDS011;43082;43.568;22.256;2023-04-25T08:53:34;7.22;;;2.38;;
57225;SDS011;43082;43.568;22.256;2023-04-25T08:56:00;8.77;;;3.72;;
57225;SDS011;43082;43.568;22.256;2023-04-25T08:58:27;8.65;;;2.40;;
57225;SDS011;43082;43.568;22.256;2023-04-25T09:00:52;7.18;;;2.97;;
57225;SDS011;43082;43.568;22.256;2023-04-25T09:03:18;8.13;;;2.35;;
57225;SDS011;43082;43.568;22.256;2023-04-25T09:05:43;6.20;;;2.22;;
57225;SDS011;43082;43.568;22.256;2023-04-25T09:08:09;4.20;;;1.40;;
57225;SDS011;43082;43.568;22.256;2023-04-25T09:10:34;6.60;;;2.95;;
57225;SDS011;43082;43.568;22.256;2023-04-25T09:13:07;7.28;;;2.15;;
57225;SDS011;43082;43.568;22.256;2023-04-25T09:18:13;5.03;;;1.48;;
57225;SDS011;43082;43.568;22.256;2023-04-25T09:20:42;6.35;;;2.80;;
57225;SDS011;43082;43.568;22.256;2023-04-25T09:23:08;7.35;;;3.35;;
57225;SDS011;43082;43.568;22.256;2023-04-25T09:25:34;11.57;;;3.13;;
57225;SDS011;43082;43.568;22.256;2023-04-25T09:28:02;8.65;;;2.20;;
57225;SDS011;43082;43.568;22.256;2023-04-25T09:30:29;6.70;;;2.53;;
57225;SDS011;43082;43.568;22.256;2023-04-25T09:33:05;4.65;;;1.70;;
57225;SDS011;43082;43.568;22.256;2023-04-25T09:35:35;7.45;;;2.17;;
57225;SDS011;43082;43.568;22.256;2023-04-25T09:38:00;4.95;;;2.00;;
57225;SDS011;43082;43.568;22.256;2023-04-25T09:40:25;7.65;;;2.80;;
57225;SDS011;43082;43.568;22.256;2023-04-25T09:42:51;6.43;;;2.50;;
57225;SDS011;43082;43.568;22.256;2023-04-25T09:45:16;6.15;;;2.72;;
57225;SDS011;43082;43.568;22.256;2023-04-25T09:47:42;6.00;;;2.30;;
57225;SDS011;43082;43.568;22.256;2023-04-25T09:50:15;5.00;;;1.58;;
57225;SDS011;43082;43.568;22.256;2023-04-25T09:52:41;8.10;;;2.05;;
57225;SDS011;43082;43.568;22.256;2023-04-25T09:55:06;7.25;;;2.05;;
57225;SDS011;43082;43.568;22.256;2023-04-25T09:57:32;7.97;;;2.50;;
57225;SDS011;43082;43.568;22.256;2023-04-25T09:59:58;7.72;;;1.63;;
57225;SDS011;43082;43.568;22.256;2023-04-25T10:02:25;7.25;;;2.70;;
57225;SDS011;43082;43.568;22.256;2023-04-25T10:04:51;6.53;;;1.92;;
57225;SDS011;43082;43.568;22.256;2023-04-25T10:07:18;5.65;;;1.90;;
57225;SDS011;43082;43.568;22.256;2023-04-25T10:09:44;6.20;;;1.63;;
57225;SDS011;43082;43.568;22.256;2023-04-25T10:12:12;5.82;;;1.80;;
57225;SDS011;43082;43.568;22.256;2023-04-25T10:14:37;6.63;;;1.90;;
57225;SDS011;43082;43.568;22.256;2023-04-25T10:17:03;6.28;;;2.42;;
57225;SDS011;43082;43.568;22.256;2023-04-25T10:19:28;6.10;;;2.40;;
57225;SDS011;43082;43.568;22.256;2023-04-25T10:24:29;5.93;;;2.00;;
57225;SDS011;43082;43.568;22.256;2023-04-25T10:26:55;7.97;;;2.83;;
57225;SDS011;43082;43.568;22.256;2023-04-25T10:29:24;7.13;;;2.92;;
57225;SDS011;43082;43.568;22.256;2023-04-25T10:31:50;9.23;;;3.40;;
57225;SDS011;43082;43.568;22.256;2023-04-25T10:34:16;6.95;;;3.60;;
57225;SDS011;43082;43.568;22.256;2023-04-25T10:36:41;5.50;;;2.10;;
57225;SDS011;43082;43.568;22.256;2023-04-25T10:39:07;9.40;;;3.45;;
57225;SDS011;43082;43.568;22.256;2023-04-25T10:44:32;8.20;;;4.43;;
57225;SDS011;43082;43.568;22.256;2023-04-25T10:46:59;8.82;;;4.40;;
57225;SDS011;43082;43.568;22.256;2023-04-25T10:52:17;6.28;;;4.00;;
57225;SDS011;43082;43.568;22.256;2023-04-25T10:54:42;8.45;;;4.20;;
57225;SDS011;43082;43.568;22.256;2023-04-25T10:57:14;8.30;;;3.28;;
57225;SDS011;43082;43.568;22.256;2023-04-25T10:59:51;11.25;;;3.72;;
57225;SDS011;43082;43.568;22.256;2023-04-25T11:02:16;9.02;;;3.65;;
57225;SDS011;43082;43.568;22.256;2023-04-25T11:04:41;7.00;;;3.78;;
57225;SDS011;43082;43.568;22.256;2023-04-25T11:07:15;7.05;;;3.70;;
57225;SDS011;43082;43.568;22.256;2023-04-25T11:09:43;8.85;;;3.90;;
57225;SDS011;43082;43.568;22.256;2023-04-25T11:12:10;9.05;;;3.92;;
57225;SDS011;43082;43.568;22.256;2023-04-25T11:14:36;8.93;;;4.88;;
57225;SDS011;43082;43.568;22.256;2023-04-25T11:17:02;8.18;;;4.72;;
57225;SDS011;43082;43.568;22.256;2023-04-25T11:19:28;6.93;;;4.57;;
57225;SDS011;43082;43.568;22.256;2023-04-25T11:22:01;9.43;;;6.70;;
57225;SDS011;43082;43.568;22.256;2023-04-25T11:24:27;8.55;;;6.00;;
57225;SDS011;43082;43.568;22.256;2023-04-25T11:26:52;10.52;;;7.25;;
57225;SDS011;43082;43.568;22.256;2023-04-25T11:29:17;9.55;;;6.80;;
57225;SDS011;43082;43.568;22.256;2023-04-25T11:31:43;12.20;;;8.00;;
57225;SDS011;43082;43.568;22.256;2023-04-25T11:34:10;15.05;;;9.10;;
57225;SDS011;43082;43.568;22.256;2023-04-25T11:36:35;11.73;;;8.80;;
57225;SDS011;43082;43.568;22.256;2023-04-25T11:39:03;11.55;;;7.40;;
57225;SDS011;43082;43.568;22.256;2023-04-25T11:41:28;11.85;;;8.75;;
57225;SDS011;43082;43.568;22.256;2023-04-25T11:43:53;13.10;;;10.30;;
57225;SDS011;43082;43.568;22.256;2023-04-25T11:46:19;12.32;;;8.88;;
57225;SDS011;43082;43.568;22.256;2023-04-25T11:48:45;18.00;;;14.40;;
57225;SDS011;43082;43.568;22.256;2023-04-25T11:51:11;15.15;;;11.77;;
57225;SDS011;43082;43.568;22.256;2023-04-25T11:53:36;13.82;;;10.77;;
57225;SDS011;43082;43.568;22.256;2023-04-25T11:56:09;14.70;;;11.60;;
57225;SDS011;43082;43.568;22.256;2023-04-25T11:58:53;11.95;;;9.00;;
57225;SDS011;43082;43.568;22.256;2023-04-25T12:01:28;13.63;;;10.88;;
57225;SDS011;43082;43.568;22.256;2023-04-25T12:03:53;10.27;;;7.18;;
57225;SDS011;43082;43.568;22.256;2023-04-25T12:06:19;11.02;;;8.27;;
57225;SDS011;43082;43.568;22.256;2023-04-25T12:09:00;9.50;;;7.60;;
57225;SDS011;43082;43.568;22.256;2023-04-25T12:11:26;10.07;;;7.63;;
57225;SDS011;43082;43.568;22.256;2023-04-25T12:13:51;9.50;;;6.68;;
57225;SDS011;43082;43.568;22.256;2023-04-25T12:16:18;9.10;;;5.20;;
57225;SDS011;43082;43.568;22.256;2023-04-25T12:18:43;8.00;;;5.32;;
57225;SDS011;43082;43.568;22.256;2023-04-25T12:21:09;9.95;;;6.30;;
57225;SDS011;43082;43.568;22.256;2023-04-25T12:23:34;7.28;;;5.13;;
57225;SDS011;43082;43.568;22.256;2023-04-25T12:26:03;11.20;;;5.50;;
57225;SDS011;43082;43.568;22.256;2023-04-25T12:28:28;9.15;;;5.70;;
57225;SDS011;43082;43.568;22.256;2023-04-25T12:31:05;8.15;;;5.40;;
57225;SDS011;43082;43.568;22.256;2023-04-25T12:33:34;9.57;;;5.70;;
57225;SDS011;43082;43.568;22.256;2023-04-25T12:36:00;9.23;;;5.82;;
57225;SDS011;43082;43.568;22.256;2023-04-25T12:38:29;15.00;;;6.05;;
57225;SDS011;43082;43.568;22.256;2023-04-25T12:40:59;6.68;;;4.60;;
57225;SDS011;43082;43.568;22.256;2023-04-25T12:43:24;7.55;;;4.97;;
57225;SDS011;43082;43.568;22.256;2023-04-25T12:45:50;7.15;;;3.53;;
57225;SDS011;43082;43.568;22.256;2023-04-25T12:48:16;6.88;;;4.07;;
57225;SDS011;43082;43.568;22.256;2023-04-25T12:50:41;7.45;;;4.00;;
57225;SDS011;43082;43.568;22.256;2023-04-25T12:53:07;6.53;;;3.55;;
57225;SDS011;43082;43.568;22.256;2023-04-25T12:55:32;6.07;;;3.72;;
57225;SDS011;43082;43.568;22.256;2023-04-25T12:57:58;7.85;;;3.83;;
57225;SDS011;43082;43.568;22.256;2023-04-25T13:00:23;6.95;;;3.67;;
57225;SDS011;43082;43.568;22.256;2023-04-25T13:02:48;6.15;;;3.38;;
57225;SDS011;43082;43.568;22.256;2023-04-25T13:05:13;11.13;;;4.03;;
57225;SDS011;43082;43.568;22.256;2023-04-25T13:07:39;10.30;;;4.05;;
57225;SDS011;43082;43.568;22.256;2023-04-25T13:10:05;10.15;;;3.97;;
57225;SDS011;43082;43.568;22.256;2023-04-25T13:12:30;10.40;;;4.05;;
57225;SDS011;43082;43.568;22.256;2023-04-25T13:14:56;8.55;;;4.40;;
57225;SDS011;43082;43.568;22.256;2023-04-25T13:17:21;7.18;;;3.53;;
57225;SDS011;43082;43.568;22.256;2023-04-25T13:19:47;9.07;;;5.07;;
57225;SDS011;43082;43.568;22.256;2023-04-25T13:22:12;8.43;;;4.60;;
57225;SDS011;43082;43.568;22.256;2023-04-25T13:24:40;8.30;;;5.07;;
57225;SDS011;43082;43.568;22.256;2023-04-25T13:27:05;13.45;;;6.32;;
57225;SDS011;43082;43.568;22.256;2023-04-25T13:29:31;8.70;;;4.28;;
57225;SDS011;43082;43.568;22.256;2023-04-25T13:31:56;14.93;;;6.22;;
57225;SDS011;43082;43.568;22.256;2023-04-25T13:34:21;12.40;;;7.60;;
57225;SDS011;43082;43.568;22.256;2023-04-25T13:36:47;17.92;;;8.13;;
57225;SDS011;43082;43.568;22.256;2023-04-25T13:39:12;10.13;;;5.57;;
57225;SDS011;43082;43.568;22.256;2023-04-25T13:41:38;6.53;;;3.20;;
57225;SDS011;43082;43.568;22.256;2023-04-25T13:44:03;5.93;;;3.25;;
57225;SDS011;43082;43.568;22.256;2023-04-25T13:46:29;7.18;;;3.90;;
57225;SDS011;43082;43.568;22.256;2023-04-25T13:48:54;9.40;;;4.38;;
57225;SDS011;43082;43.568;22.256;2023-04-25T13:51:19;7.03;;;3.75;;
57225;SDS011;43082;43.568;22.256;2023-04-25T13:53:45;9.73;;;3.65;;
57225;SDS011;43082;43.568;22.256;2023-04-25T13:56:11;11.38;;;5.00;;
57225;SDS011;43082;43.568;22.256;2023-04-25T13:58:36;14.15;;;5.70;;
57225;SDS011;43082;43.568;22.256;2023-04-25T14:01:02;11.63;;;5.47;;
57225;SDS011;43082;43.568;22.256;2023-04-25T14:03:28;10.60;;;5.32;;
57225;SDS011;43082;43.568;22.256;2023-04-25T14:05:53;13.23;;;6.28;;
57225;SDS011;43082;43.568;22.256;2023-04-25T14:08:19;10.52;;;6.28;;
57225;SDS011;43082;43.568;22.256;2023-04-25T14:10:45;10.13;;;5.88;;
57225;SDS011;43082;43.568;22.256;2023-04-25T14:13:10;10.45;;;5.30;;
57225;SDS011;43082;43.568;22.256;2023-04-25T14:15:36;10.27;;;5.65;;
57225;SDS011;43082;43.568;22.256;2023-04-25T14:18:01;9.80;;;5.95;;
57225;SDS011;43082;43.568;22.256;2023-04-25T14:20:27;10.27;;;5.15;;
57225;SDS011;43082;43.568;22.256;2023-04-25T14:22:52;18.73;;;7.20;;
57225;SDS011;43082;43.568;22.256;2023-04-25T14:25:19;15.93;;;6.43;;
57225;SDS011;43082;43.568;22.256;2023-04-25T14:27:44;12.30;;;5.90;;
57225;SDS011;43082;43.568;22.256;2023-04-25T14:30:14;17.77;;;7.60;;